createdAt,value
2019-06-26T00:00:44.227Z,79.80
2019-06-26T00:01:46.283Z,79.80
2019-06-26T00:02:48.075Z,79.90
2019-06-26T00:03:49.778Z,80.00
2019-06-26T00:04:51.470Z,80.00
2019-06-26T00:05:53.195Z,80.00
2019-06-26T00:06:54.889Z,80.20
2019-06-26T00:07:56.587Z,80.20
2019-06-26T00:08:58.278Z,80.10
2019-06-26T00:09:59.849Z,80.20
2019-06-26T00:11:01.542Z,80.40
2019-06-26T00:12:03.157Z,80.20
2019-06-26T00:13:04.733Z,80.40
2019-06-26T00:14:06.416Z,80.30
2019-06-26T00:15:08.641Z,80.30
2019-06-26T00:16:10.326Z,80.30
2019-06-26T00:17:12.018Z,80.50
2019-06-26T00:18:13.610Z,80.50
2019-06-26T00:19:15.191Z,80.50
2019-06-26T00:20:17.568Z,80.50
2019-06-26T00:21:21.957Z,80.60
2019-06-26T00:22:22.830Z,80.70
2019-06-26T00:23:24.493Z,80.90
2019-06-26T00:24:26.074Z,81.20
2019-06-26T00:25:27.671Z,81.30
2019-06-26T00:26:29.355Z,81.50
2019-06-26T00:27:31.093Z,81.60
2019-06-26T00:28:32.797Z,82.00
2019-06-26T00:29:34.906Z,82.20
2019-06-26T00:30:36.593Z,82.30
2019-06-26T00:31:38.275Z,82.20
2019-06-26T00:32:40.307Z,82.00
2019-06-26T00:33:41.889Z,82.00
2019-06-26T00:34:43.585Z,81.90
2019-06-26T00:35:45.270Z,81.90
2019-06-26T00:36:46.877Z,81.90
2019-06-26T00:37:48.487Z,81.90
2019-06-26T00:38:50.330Z,81.90
2019-06-26T00:39:52.185Z,82.20
2019-06-26T00:40:53.864Z,82.50
2019-06-26T00:41:55.987Z,82.60
2019-06-26T00:42:57.590Z,82.60
2019-06-26T00:43:59.282Z,82.70
2019-06-26T00:45:00.865Z,82.60
2019-06-26T00:46:02.768Z,82.60
2019-06-26T00:47:04.461Z,82.80
2019-06-26T00:48:06.078Z,82.90
2019-06-26T00:49:07.649Z,83.50
2019-06-26T00:50:09.839Z,82.90
2019-06-26T00:51:11.528Z,82.90
2019-06-26T00:52:13.467Z,82.80
2019-06-26T00:53:15.099Z,82.70
2019-06-26T00:54:16.793Z,82.60
2019-06-26T00:55:18.479Z,83.00
2019-06-26T00:56:20.166Z,82.80
2019-06-26T00:57:21.857Z,82.80
2019-06-26T00:58:23.457Z,82.60
2019-06-26T00:59:25.136Z,82.50
2019-06-26T01:00:33.429Z,82.50
2019-06-26T01:01:35.348Z,82.60
2019-06-26T01:02:37.145Z,82.70
2019-06-26T01:03:38.728Z,82.80
2019-06-26T01:04:44.921Z,82.80
2019-06-26T01:05:46.604Z,82.80
2019-06-26T01:06:48.297Z,82.80
2019-06-26T01:07:49.886Z,82.70
2019-06-26T01:08:51.602Z,82.70
2019-06-26T01:09:54.532Z,82.70
2019-06-26T01:10:56.235Z,82.70
2019-06-26T01:11:57.924Z,82.70
2019-06-26T01:12:59.501Z,82.70
2019-06-26T01:14:01.196Z,82.80
2019-06-26T01:15:04.528Z,83.00
2019-06-26T01:16:06.224Z,83.00
2019-06-26T01:17:08.322Z,83.30
2019-06-26T01:18:10.081Z,83.40
2019-06-26T01:19:11.671Z,83.60
2019-06-26T01:20:13.478Z,83.70
2019-06-26T01:21:15.175Z,83.60
2019-06-26T01:22:16.848Z,83.50
2019-06-26T01:23:18.635Z,83.50
2019-06-26T01:24:20.340Z,83.60
2019-06-26T01:25:22.338Z,83.60
2019-06-26T01:26:23.930Z,83.50
2019-06-26T01:27:25.636Z,83.30
2019-06-26T01:28:27.221Z,83.40
2019-06-26T01:29:31.846Z,83.40
2019-06-26T01:30:32.481Z,83.60
2019-06-26T01:31:34.205Z,83.80
2019-06-26T01:32:36.283Z,84.40
2019-06-26T01:33:37.961Z,84.40
2019-06-26T01:34:39.657Z,84.40
2019-06-26T01:35:41.372Z,84.40
2019-06-26T01:36:43.360Z,84.30
2019-06-26T01:37:45.239Z,84.20
2019-06-26T01:38:46.946Z,84.10
2019-06-26T01:39:48.922Z,84.10
2019-06-26T01:40:50.561Z,84.10
2019-06-26T01:41:52.253Z,84.20
2019-06-26T01:42:53.943Z,84.30
2019-06-26T01:43:55.553Z,84.40
2019-06-26T01:44:57.138Z,84.50
2019-06-26T01:46:00.307Z,84.60
2019-06-26T01:47:02.299Z,84.90
2019-06-26T01:48:04.433Z,84.90
2019-06-26T01:49:06.049Z,85.00
2019-06-26T01:50:09.329Z,85.10
2019-06-26T01:51:11.533Z,85.10
2019-06-26T01:52:13.125Z,85.20
2019-06-26T01:53:14.815Z,85.10
2019-06-26T01:54:16.510Z,85.10
2019-06-26T01:55:18.718Z,85.20
2019-06-26T01:56:20.438Z,85.20
2019-06-26T01:57:22.121Z,85.30
2019-06-26T01:58:23.833Z,85.30
2019-06-26T01:59:25.500Z,85.40
2019-06-26T02:00:27.120Z,85.40
2019-06-26T02:01:28.865Z,85.50
2019-06-26T02:02:30.535Z,85.50
2019-06-26T02:03:32.238Z,85.60
2019-06-26T02:04:33.949Z,85.60
2019-06-26T02:05:35.659Z,85.70
2019-06-26T02:06:37.406Z,85.70
2019-06-26T02:07:39.095Z,86.00
2019-06-26T02:08:40.681Z,85.90
2019-06-26T02:09:42.275Z,86.20
2019-06-26T02:10:43.975Z,86.40
2019-06-26T02:11:46.179Z,86.40
2019-06-26T02:12:47.995Z,87.20
2019-06-26T02:13:49.686Z,85.80
2019-06-26T02:14:54.385Z,86.50
2019-06-26T02:15:56.079Z,86.60
2019-06-26T02:16:57.797Z,86.70
2019-06-26T02:17:59.380Z,86.70
2019-06-26T02:19:02.879Z,86.40
2019-06-26T02:20:07.891Z,86.30
2019-06-26T02:21:09.473Z,86.20
2019-06-26T02:22:11.253Z,86.10
2019-06-26T02:23:12.783Z,86.20
2019-06-26T02:24:14.529Z,86.20
2019-06-26T02:25:16.290Z,86.20
2019-06-26T02:26:17.831Z,86.30
2019-06-26T02:27:19.767Z,86.30
2019-06-26T02:28:21.362Z,86.40
2019-06-26T02:29:22.957Z,86.50
2019-06-26T02:30:24.650Z,86.60
2019-06-26T02:31:26.368Z,86.60
2019-06-26T02:32:28.007Z,86.60
2019-06-26T02:33:29.706Z,86.90
2019-06-26T02:34:31.382Z,86.90
2019-06-26T02:35:32.969Z,87.00
2019-06-26T02:36:34.579Z,87.00
2019-06-26T02:37:36.289Z,87.00
2019-06-26T02:38:37.965Z,87.00
2019-06-26T02:39:39.664Z,86.90
2019-06-26T02:40:41.483Z,87.00
2019-06-26T02:41:43.073Z,87.00
2019-06-26T02:42:44.676Z,87.10
2019-06-26T02:43:46.364Z,87.10
2019-06-26T02:44:53.634Z,87.20
2019-06-26T02:45:51.433Z,87.10
2019-06-26T02:46:53.226Z,87.00
2019-06-26T02:47:54.954Z,87.20
2019-06-26T02:48:58.168Z,87.40
2019-06-26T02:49:59.838Z,87.40
2019-06-26T02:51:01.812Z,87.40
2019-06-26T02:52:03.398Z,87.30
2019-06-26T02:53:05.114Z,87.40
2019-06-26T02:54:06.694Z,87.60
2019-06-26T02:55:08.679Z,87.80
2019-06-26T02:56:10.564Z,87.80
2019-06-26T02:57:12.247Z,87.80
2019-06-26T02:58:15.770Z,87.80
2019-06-26T02:59:17.449Z,87.80
2019-06-26T03:00:19.145Z,87.70
2019-06-26T03:01:20.826Z,87.50
2019-06-26T03:02:22.524Z,87.60
2019-06-26T03:03:27.186Z,87.40
2019-06-26T03:04:28.890Z,87.40
2019-06-26T03:05:30.490Z,87.50
2019-06-26T03:06:32.090Z,87.60
2019-06-26T03:07:33.769Z,87.40
2019-06-26T03:08:35.546Z,87.40
2019-06-26T03:09:37.250Z,87.40
2019-06-26T03:10:38.944Z,87.50
2019-06-26T03:11:44.419Z,87.50
2019-06-26T03:12:49.788Z,87.40
2019-06-26T03:13:51.578Z,87.30
2019-06-26T03:15:07.681Z,87.20
2019-06-26T03:15:56.729Z,87.00
2019-06-26T03:17:07.719Z,87.00
2019-06-26T03:18:09.431Z,86.80
2019-06-26T03:19:11.167Z,86.70
2019-06-26T03:20:13.282Z,86.60
2019-06-26T03:21:14.976Z,86.80
2019-06-26T03:22:16.675Z,86.60
2019-06-26T03:23:18.394Z,86.60
2019-06-26T03:24:20.099Z,87.40
2019-06-26T03:25:22.097Z,86.50
2019-06-26T03:26:23.785Z,86.40
2019-06-26T03:27:25.876Z,86.30
2019-06-26T03:28:27.465Z,86.20
2019-06-26T03:29:29.209Z,86.20
2019-06-26T03:30:33.815Z,86.20
2019-06-26T03:31:35.543Z,86.20
2019-06-26T03:32:37.223Z,86.20
2019-06-26T03:33:38.918Z,86.20
2019-06-26T03:34:40.533Z,86.20
2019-06-26T03:35:42.132Z,86.20
2019-06-26T03:36:43.817Z,86.10
2019-06-26T03:37:45.803Z,86.00
2019-06-26T03:38:47.493Z,85.70
2019-06-26T03:39:49.300Z,85.50
2019-06-26T03:40:51.052Z,85.20
2019-06-26T03:41:53.154Z,85.20
2019-06-26T03:42:54.872Z,85.30
2019-06-26T03:43:56.883Z,85.40
2019-06-26T03:44:58.492Z,85.00
2019-06-26T03:46:00.208Z,85.00
2019-06-26T03:47:01.784Z,84.80
2019-06-26T03:48:03.595Z,84.30
2019-06-26T03:49:05.288Z,84.30
2019-06-26T03:50:07.867Z,84.30
2019-06-26T03:51:09.473Z,84.60
2019-06-26T03:52:11.162Z,84.60
2019-06-26T03:53:12.741Z,84.60
2019-06-26T03:54:14.429Z,84.40
2019-06-26T03:55:16.457Z,84.70
2019-06-26T03:56:18.045Z,84.40
2019-06-26T03:57:19.736Z,83.60
2019-06-26T03:58:21.523Z,83.90
2019-06-26T03:59:23.229Z,83.70
2019-06-26T04:00:34.660Z,84.10
2019-06-26T04:01:36.351Z,84.30
2019-06-26T04:02:37.995Z,84.30
2019-06-26T04:03:39.581Z,85.20
2019-06-26T04:04:41.185Z,84.40
2019-06-26T04:05:42.797Z,84.10
2019-06-26T04:06:44.515Z,84.60
2019-06-26T04:07:46.191Z,84.80
2019-06-26T04:08:47.776Z,84.00
2019-06-26T04:09:49.476Z,83.90
2019-06-26T04:10:51.121Z,83.80
2019-06-26T04:11:52.809Z,83.70
2019-06-26T04:12:54.616Z,83.50
2019-06-26T04:13:56.142Z,83.10
2019-06-26T04:14:57.872Z,82.90
2019-06-26T04:15:59.558Z,82.80
2019-06-26T04:17:01.255Z,82.80
2019-06-26T04:18:02.949Z,82.00
2019-06-26T04:19:04.739Z,81.60
2019-06-26T04:20:06.731Z,81.90
2019-06-26T04:21:08.456Z,81.60
2019-06-26T04:22:10.231Z,80.70
2019-06-26T04:23:11.839Z,81.10
2019-06-26T04:24:13.428Z,81.30
2019-06-26T04:25:15.118Z,81.70
2019-06-26T04:26:16.838Z,81.60
2019-06-26T04:27:18.547Z,81.30
2019-06-26T04:28:20.326Z,81.40
2019-06-26T04:29:21.930Z,80.60
2019-06-26T04:30:23.699Z,81.40
2019-06-26T04:31:25.437Z,81.10
2019-06-26T04:32:27.021Z,80.50
2019-06-26T04:33:29.066Z,80.80
2019-06-26T04:34:30.649Z,81.10
2019-06-26T04:35:32.359Z,80.60
2019-06-26T04:36:34.102Z,80.90
2019-06-26T04:37:37.142Z,80.70
2019-06-26T04:38:58.490Z,80.90
2019-06-26T04:40:00.431Z,80.30
2019-06-26T04:41:02.022Z,80.20
2019-06-26T04:42:03.745Z,80.20
2019-06-26T04:43:05.323Z,80.00
2019-06-26T04:44:06.954Z,80.10
2019-06-26T04:45:10.780Z,80.70
2019-06-26T04:46:12.459Z,81.20
2019-06-26T04:47:14.179Z,80.30
2019-06-26T04:48:15.854Z,80.20
2019-06-26T04:49:17.572Z,79.90
2019-06-26T04:50:20.772Z,79.00
2019-06-26T04:51:22.473Z,79.50
2019-06-26T04:52:24.073Z,80.40
2019-06-26T04:53:25.786Z,79.90
2019-06-26T04:54:27.433Z,79.50
2019-06-26T04:55:29.026Z,79.80
2019-06-26T04:56:30.727Z,79.90
2019-06-26T04:57:32.318Z,78.90
2019-06-26T04:58:33.894Z,78.70
2019-06-26T04:59:36.219Z,78.10
2019-06-26T05:00:37.820Z,78.60
2019-06-26T05:01:39.615Z,78.40
2019-06-26T05:02:41.294Z,78.60
2019-06-26T05:03:42.991Z,77.80
2019-06-26T05:04:44.750Z,78.40
2019-06-26T05:05:46.437Z,76.80
2019-06-26T05:06:48.048Z,76.90
2019-06-26T05:07:49.644Z,77.00
2019-06-26T05:08:51.304Z,77.20
2019-06-26T05:09:53.373Z,77.00
2019-06-26T05:10:55.101Z,77.30
2019-06-26T05:11:56.651Z,77.10
2019-06-26T05:12:58.368Z,77.20
2019-06-26T05:14:00.042Z,76.60
2019-06-26T05:15:05.486Z,77.30
2019-06-26T05:16:14.867Z,76.80
2019-06-26T05:17:10.712Z,76.10
2019-06-26T05:18:12.396Z,75.80
2019-06-26T05:19:14.103Z,75.60
2019-06-26T05:20:15.827Z,74.40
2019-06-26T05:21:17.506Z,74.70
2019-06-26T05:22:19.670Z,74.60
2019-06-26T05:23:21.376Z,74.30
2019-06-26T05:24:22.953Z,74.60
2019-06-26T05:25:26.143Z,75.60
2019-06-26T05:26:27.850Z,75.40
2019-06-26T05:27:29.854Z,75.20
2019-06-26T05:28:31.446Z,74.20
2019-06-26T05:29:33.137Z,73.50
2019-06-26T05:30:35.192Z,73.90
2019-06-26T05:31:36.924Z,74.10
2019-06-26T05:32:38.506Z,74.50
2019-06-26T05:33:40.101Z,73.70
2019-06-26T05:34:42.091Z,73.70
2019-06-26T05:35:43.733Z,73.50
2019-06-26T05:36:45.297Z,73.90
2019-06-26T05:37:46.901Z,74.00
2019-06-26T05:38:48.620Z,72.80
2019-06-26T05:39:50.434Z,72.30
2019-06-26T05:40:53.565Z,72.90
2019-06-26T05:41:55.140Z,72.50
2019-06-26T05:42:56.837Z,72.30
2019-06-26T05:43:58.536Z,73.50
2019-06-26T05:45:00.148Z,72.90
2019-06-26T05:46:02.083Z,72.70
2019-06-26T05:47:06.989Z,73.40
2019-06-26T05:48:07.290Z,72.30
2019-06-26T05:49:08.893Z,71.50
2019-06-26T05:50:11.588Z,72.60
2019-06-26T05:51:13.202Z,71.10
2019-06-26T05:52:16.732Z,70.90
2019-06-26T05:53:18.266Z,70.80
2019-06-26T05:54:19.954Z,70.20
2019-06-26T05:55:21.537Z,70.30
2019-06-26T05:56:23.309Z,71.00
2019-06-26T05:57:24.897Z,70.70
2019-06-26T05:58:26.572Z,69.50
2019-06-26T05:59:28.139Z,70.80
2019-06-26T06:00:29.759Z,70.40
2019-06-26T06:01:31.475Z,71.00
2019-06-26T06:02:33.166Z,70.70
2019-06-26T06:03:34.866Z,70.50
2019-06-26T06:04:36.666Z,70.50
2019-06-26T06:05:38.328Z,69.90
2019-06-26T06:06:41.934Z,68.50
2019-06-26T06:07:43.365Z,69.10
2019-06-26T06:08:44.937Z,69.90
2019-06-26T06:09:46.537Z,71.10
2019-06-26T06:10:48.154Z,70.60
2019-06-26T06:11:49.838Z,71.00
2019-06-26T06:12:51.562Z,70.10
2019-06-26T06:13:53.621Z,69.20
2019-06-26T06:14:55.321Z,69.60
2019-06-26T06:15:57.018Z,70.80
2019-06-26T06:16:58.748Z,70.30
2019-06-26T06:18:00.383Z,68.60
2019-06-26T06:19:02.593Z,69.20
2019-06-26T06:20:05.622Z,68.40
2019-06-26T06:21:07.653Z,68.30
2019-06-26T06:22:09.333Z,68.40
2019-06-26T06:23:11.300Z,68.30
2019-06-26T06:24:12.917Z,68.10
2019-06-26T06:25:14.595Z,68.70
2019-06-26T06:26:16.278Z,67.70
2019-06-26T06:27:18.029Z,67.20
2019-06-26T06:28:19.817Z,67.30
2019-06-26T06:29:21.543Z,67.20
2019-06-26T06:30:24.046Z,66.60
2019-06-26T06:31:25.837Z,66.20
2019-06-26T06:32:27.436Z,65.40
2019-06-26T06:33:29.161Z,64.90
2019-06-26T06:34:30.962Z,64.90
2019-06-26T06:35:32.491Z,65.30
2019-06-26T06:36:34.074Z,64.20
2019-06-26T06:37:35.806Z,64.10
2019-06-26T06:38:37.525Z,65.50
2019-06-26T06:39:42.641Z,65.80
2019-06-26T06:40:44.328Z,65.50
2019-06-26T06:41:46.029Z,65.20
2019-06-26T06:42:47.718Z,62.90
2019-06-26T06:43:56.118Z,62.70
2019-06-26T06:45:05.257Z,61.90
2019-06-26T06:46:09.345Z,62.30
2019-06-26T06:47:14.075Z,62.00
2019-06-26T06:48:16.359Z,61.10
2019-06-26T06:49:18.273Z,60.90
2019-06-26T06:50:20.251Z,60.80
2019-06-26T06:51:22.283Z,60.50
2019-06-26T06:52:26.869Z,60.50
2019-06-26T06:53:28.760Z,61.30
2019-06-26T06:54:30.326Z,61.40
2019-06-26T06:55:31.962Z,60.20
2019-06-26T06:56:33.645Z,59.80
2019-06-26T06:57:35.353Z,60.10
2019-06-26T06:58:37.041Z,59.90
2019-06-26T06:59:38.742Z,60.10
2019-06-26T07:00:40.481Z,62.00
2019-06-26T07:01:42.524Z,60.60
2019-06-26T07:02:44.204Z,59.50
2019-06-26T07:03:45.887Z,59.60
2019-06-26T07:04:47.577Z,59.30
2019-06-26T07:05:49.256Z,59.80
2019-06-26T07:06:50.958Z,59.90
2019-06-26T07:07:52.537Z,59.80
2019-06-26T07:08:54.148Z,58.10
2019-06-26T07:09:55.839Z,57.90
2019-06-26T07:10:57.578Z,58.40
2019-06-26T07:11:59.289Z,58.70
2019-06-26T07:13:00.885Z,57.50
2019-06-26T07:14:03.165Z,57.80
2019-06-26T07:15:07.671Z,57.80
2019-06-26T07:16:09.401Z,58.00
2019-06-26T07:17:20.669Z,57.40
2019-06-26T07:18:15.005Z,57.50
2019-06-26T07:19:22.586Z,57.80
2019-06-26T07:20:24.649Z,57.60
2019-06-26T07:21:26.357Z,57.40
2019-06-26T07:22:27.946Z,57.60
2019-06-26T07:23:29.650Z,56.80
2019-06-26T07:24:31.358Z,57.20
2019-06-26T07:25:33.038Z,56.70
2019-06-26T07:26:34.759Z,56.80
2019-06-26T07:27:36.739Z,56.80
2019-06-26T07:28:38.417Z,56.60
2019-06-26T07:29:40.226Z,56.10
2019-06-26T07:30:41.925Z,56.70
2019-06-26T07:31:43.618Z,57.00
2019-06-26T07:32:45.367Z,56.90
2019-06-26T07:33:46.951Z,56.30
2019-06-26T07:34:48.657Z,55.90
2019-06-26T07:35:50.366Z,55.40
2019-06-26T07:36:52.105Z,56.00
2019-06-26T07:37:53.801Z,56.20
2019-06-26T07:38:55.429Z,55.90
2019-06-26T07:40:01.461Z,55.00
2019-06-26T07:41:00.573Z,54.90
2019-06-26T07:42:02.312Z,54.80
2019-06-26T07:43:03.889Z,55.30
2019-06-26T07:44:05.587Z,55.60
2019-06-26T07:45:08.112Z,54.20
2019-06-26T07:46:10.144Z,54.50
2019-06-26T07:47:22.450Z,53.90
2019-06-26T07:48:16.697Z,54.00
2019-06-26T07:49:18.393Z,54.00
2019-06-26T07:50:20.119Z,54.30
2019-06-26T07:51:21.924Z,55.80
2019-06-26T07:52:23.597Z,54.10
2019-06-26T07:53:25.232Z,54.20
2019-06-26T07:54:26.898Z,56.20
2019-06-26T07:55:28.597Z,55.90
2019-06-26T07:56:30.181Z,54.30
2019-06-26T07:57:32.164Z,53.80
2019-06-26T07:58:33.849Z,52.90
2019-06-26T07:59:35.498Z,53.00
2019-06-26T08:00:37.127Z,52.20
2019-06-26T08:01:38.822Z,52.30
2019-06-26T08:02:40.544Z,51.50
2019-06-26T08:03:42.106Z,50.70
2019-06-26T08:04:43.977Z,50.90
2019-06-26T08:05:45.727Z,50.50
2019-06-26T08:06:47.271Z,50.30
2019-06-26T08:07:48.871Z,50.60
2019-06-26T08:08:51.428Z,51.30
2019-06-26T08:09:53.335Z,51.70
2019-06-26T08:10:55.023Z,50.40
2019-06-26T08:11:56.615Z,51.30
2019-06-26T08:12:58.228Z,51.40
2019-06-26T08:14:00.029Z,52.00
2019-06-26T08:15:02.765Z,51.80
2019-06-26T08:16:04.883Z,52.00
2019-06-26T08:17:06.572Z,51.70
2019-06-26T08:18:08.251Z,51.70
2019-06-26T08:19:09.938Z,51.60
2019-06-26T08:20:11.791Z,51.10
2019-06-26T08:21:13.471Z,51.60
2019-06-26T08:22:15.197Z,50.80
2019-06-26T08:23:17.887Z,51.40
2019-06-26T08:24:19.497Z,51.00
2019-06-26T08:25:21.144Z,50.10
2019-06-26T08:26:22.731Z,51.20
2019-06-26T08:27:24.457Z,51.60
2019-06-26T08:28:26.057Z,51.20
2019-06-26T08:29:28.067Z,50.90
2019-06-26T08:30:30.014Z,51.50
2019-06-26T08:31:31.729Z,51.90
2019-06-26T08:32:33.411Z,51.50
2019-06-26T08:33:35.102Z,51.40
2019-06-26T08:34:36.814Z,50.70
2019-06-26T08:35:38.528Z,51.20
2019-06-26T08:36:40.211Z,50.90
2019-06-26T08:37:41.785Z,50.60
2019-06-26T08:38:43.479Z,51.00
2019-06-26T08:39:45.100Z,50.70
2019-06-26T08:40:46.715Z,50.70
2019-06-26T08:41:48.425Z,50.70
2019-06-26T08:42:49.985Z,51.00
2019-06-26T08:43:51.773Z,50.10
2019-06-26T08:44:53.360Z,50.10
2019-06-26T08:45:55.414Z,50.40
2019-06-26T08:46:57.123Z,50.40
2019-06-26T08:47:58.708Z,50.40
2019-06-26T08:49:00.431Z,51.10
2019-06-26T08:50:04.610Z,50.60
2019-06-26T08:51:06.374Z,51.10
2019-06-26T08:52:08.048Z,50.30
2019-06-26T08:53:09.806Z,49.70
2019-06-26T08:54:11.565Z,50.10
2019-06-26T08:55:13.910Z,50.30
2019-06-26T08:56:16.029Z,48.90
2019-06-26T08:57:17.609Z,49.00
2019-06-26T08:58:19.205Z,49.00
2019-06-26T08:59:20.906Z,47.80
2019-06-26T09:00:22.699Z,48.20
2019-06-26T09:01:24.418Z,48.70
2019-06-26T09:02:26.118Z,49.30
2019-06-26T09:03:27.803Z,48.70
2019-06-26T09:04:29.489Z,49.10
2019-06-26T09:05:46.942Z,48.50
2019-06-26T09:06:34.527Z,48.00
2019-06-26T09:07:36.320Z,49.10
2019-06-26T09:08:38.126Z,49.30
2019-06-26T09:09:39.843Z,49.80
2019-06-26T09:10:44.735Z,49.60
2019-06-26T09:11:44.902Z,49.10
2019-06-26T09:12:46.636Z,49.10
2019-06-26T09:13:48.317Z,48.90
2019-06-26T09:14:49.932Z,49.40
2019-06-26T09:15:51.615Z,49.70
2019-06-26T09:16:53.462Z,51.30
2019-06-26T09:17:55.063Z,50.30
2019-06-26T09:18:56.729Z,48.30
2019-06-26T09:19:58.421Z,49.00
2019-06-26T09:21:00.023Z,48.00
2019-06-26T09:22:01.761Z,47.30
2019-06-26T09:23:03.993Z,46.40
2019-06-26T09:24:05.602Z,46.50
2019-06-26T09:25:20.992Z,46.60
2019-06-26T09:26:10.930Z,48.30
2019-06-26T09:27:15.066Z,47.90
2019-06-26T09:28:16.204Z,47.30
2019-06-26T09:29:17.896Z,47.50
2019-06-26T09:30:19.704Z,47.70
2019-06-26T09:31:21.445Z,47.50
2019-06-26T09:32:23.088Z,48.20
2019-06-26T09:33:24.674Z,49.10
2019-06-26T09:34:26.267Z,48.20
2019-06-26T09:35:27.954Z,48.10
2019-06-26T09:36:29.568Z,47.90
2019-06-26T09:37:31.207Z,47.70
2019-06-26T09:38:32.894Z,48.80
2019-06-26T09:39:34.578Z,48.90
2019-06-26T09:40:36.267Z,49.10
2019-06-26T09:41:37.970Z,49.20
2019-06-26T09:42:39.946Z,47.80
2019-06-26T09:43:41.645Z,47.50
2019-06-26T09:44:43.326Z,48.40
2019-06-26T09:45:45.026Z,48.90
2019-06-26T09:46:47.150Z,47.90
2019-06-26T09:47:48.784Z,47.60
2019-06-26T09:48:53.111Z,47.20
2019-06-26T09:49:53.899Z,46.90
2019-06-26T09:50:55.881Z,48.50
2019-06-26T09:51:57.576Z,47.70
2019-06-26T09:52:59.514Z,47.90
2019-06-26T09:54:01.555Z,47.70
2019-06-26T09:55:04.564Z,47.30
2019-06-26T09:56:06.170Z,47.90
2019-06-26T09:57:07.769Z,49.20
2019-06-26T09:58:12.977Z,47.20
2019-06-26T09:59:12.883Z,45.60
2019-06-26T10:00:18.190Z,45.70
2019-06-26T10:01:19.946Z,45.20
2019-06-26T10:02:21.611Z,44.90
2019-06-26T10:03:23.631Z,45.70
2019-06-26T10:04:25.375Z,45.20
2019-06-26T10:05:26.947Z,44.50
2019-06-26T10:06:28.640Z,44.40
2019-06-26T10:07:30.336Z,45.20
2019-06-26T10:08:32.058Z,45.40
2019-06-26T10:09:33.755Z,44.50
2019-06-26T10:10:35.458Z,44.50
2019-06-26T10:11:37.137Z,44.70
2019-06-26T10:12:39.131Z,44.50
2019-06-26T10:13:40.867Z,45.40
2019-06-26T10:14:47.650Z,45.70
2019-06-26T10:15:46.042Z,45.40
2019-06-26T10:16:47.759Z,44.60
2019-06-26T10:17:49.450Z,45.70
2019-06-26T10:18:51.129Z,45.70
2019-06-26T10:19:54.157Z,46.50
2019-06-26T10:20:55.997Z,46.10
2019-06-26T10:21:57.582Z,45.50
2019-06-26T10:22:59.267Z,45.10
2019-06-26T10:24:06.960Z,45.00
2019-06-26T10:25:11.267Z,44.50
2019-06-26T10:26:12.280Z,45.80
2019-06-26T10:27:13.861Z,46.90
2019-06-26T10:28:15.561Z,46.20
2019-06-26T10:29:17.231Z,45.50
2019-06-26T10:30:19.300Z,45.00
2019-06-26T10:31:21.036Z,45.10
2019-06-26T10:32:22.708Z,44.50
2019-06-26T10:33:24.647Z,44.10
2019-06-26T10:34:26.380Z,43.80
2019-06-26T10:35:28.074Z,43.60
2019-06-26T10:36:29.759Z,43.80
2019-06-26T10:37:31.342Z,43.90
2019-06-26T10:38:33.389Z,44.10
2019-06-26T10:39:35.134Z,43.40
2019-06-26T10:40:36.866Z,44.00
2019-06-26T10:41:38.437Z,43.00
2019-06-26T10:42:40.125Z,43.10
2019-06-26T10:43:41.723Z,43.80
2019-06-26T10:44:43.477Z,43.60
2019-06-26T10:45:45.157Z,43.70
2019-06-26T10:46:46.856Z,42.30
2019-06-26T10:47:48.553Z,41.40
2019-06-26T10:48:50.236Z,41.60
2019-06-26T10:49:51.845Z,41.10
2019-06-26T10:50:58.402Z,40.90
2019-06-26T10:51:56.863Z,41.20
2019-06-26T10:52:58.563Z,40.40
2019-06-26T10:54:00.324Z,41.10
2019-06-26T10:55:04.220Z,42.20
2019-06-26T10:56:05.934Z,41.80
2019-06-26T10:57:10.413Z,42.10
2019-06-26T10:58:11.987Z,42.00
2019-06-26T10:59:13.671Z,42.40
2019-06-26T11:00:15.940Z,42.30
2019-06-26T11:01:17.603Z,44.20
2019-06-26T11:02:19.245Z,42.40
2019-06-26T11:03:21.291Z,43.60
2019-06-26T11:04:23.049Z,43.40
2019-06-26T11:05:24.760Z,42.50
2019-06-26T11:06:26.830Z,42.30
2019-06-26T11:07:29.870Z,42.40
2019-06-26T11:08:31.461Z,43.20
2019-06-26T11:09:33.148Z,42.30
2019-06-26T11:10:35.259Z,41.50
2019-06-26T11:11:37.833Z,42.50
2019-06-26T11:12:39.457Z,41.40
2019-06-26T11:13:41.161Z,42.00
2019-06-26T11:14:44.463Z,42.30
2019-06-26T11:15:46.158Z,42.70
2019-06-26T11:16:47.879Z,42.30
2019-06-26T11:17:49.614Z,41.00
2019-06-26T11:18:51.306Z,41.20
2019-06-26T11:19:55.432Z,42.10
2019-06-26T11:20:56.503Z,42.40
2019-06-26T11:21:58.110Z,41.10
2019-06-26T11:22:59.844Z,41.60
2019-06-26T11:24:01.875Z,42.60
2019-06-26T11:25:05.570Z,41.60
2019-06-26T11:26:07.254Z,42.80
2019-06-26T11:27:08.941Z,42.70
2019-06-26T11:28:10.561Z,42.30
2019-06-26T11:29:12.236Z,42.60
2019-06-26T11:30:14.334Z,43.00
2019-06-26T11:31:16.064Z,41.10
2019-06-26T11:32:17.755Z,41.70
2019-06-26T11:33:19.550Z,41.50
2019-06-26T11:34:21.108Z,42.10
2019-06-26T11:35:22.816Z,41.90
2019-06-26T11:36:24.383Z,43.00
2019-06-26T11:37:26.099Z,42.80
2019-06-26T11:38:28.174Z,43.20
2019-06-26T11:39:30.250Z,43.00
2019-06-26T11:40:31.843Z,43.30
2019-06-26T11:41:33.442Z,44.50
2019-06-26T11:42:35.051Z,41.90
2019-06-26T11:43:36.833Z,40.90
2019-06-26T11:44:38.488Z,41.00
2019-06-26T11:45:40.275Z,42.00
2019-06-26T11:46:42.273Z,42.00
2019-06-26T11:47:45.881Z,41.50
2019-06-26T11:48:47.314Z,41.70
2019-06-26T11:49:59.451Z,41.90
2019-06-26T11:50:52.428Z,42.70
2019-06-26T11:51:54.146Z,41.90
2019-06-26T11:52:55.855Z,41.30
2019-06-26T11:53:59.094Z,41.50
2019-06-26T11:55:02.979Z,41.70
2019-06-26T11:56:04.580Z,42.70
2019-06-26T11:57:06.164Z,41.50
2019-06-26T11:58:07.766Z,42.10
2019-06-26T11:59:09.555Z,42.30
2019-06-26T12:00:14.763Z,42.30
2019-06-26T12:01:16.462Z,41.10
2019-06-26T12:02:21.724Z,41.60
2019-06-26T12:03:23.531Z,41.80
2019-06-26T12:04:25.231Z,42.20
2019-06-26T12:05:26.878Z,42.90
2019-06-26T12:06:28.555Z,42.90
2019-06-26T12:07:30.253Z,43.40
2019-06-26T12:08:31.855Z,43.00
2019-06-26T12:09:33.946Z,42.40
2019-06-26T12:10:35.646Z,41.50
2019-06-26T12:11:37.346Z,41.30
2019-06-26T12:12:39.111Z,41.00
2019-06-26T12:13:40.844Z,41.40
2019-06-26T12:14:42.462Z,41.80
2019-06-26T12:15:44.055Z,40.70
2019-06-26T12:16:45.743Z,40.60
2019-06-26T12:17:47.441Z,40.10
2019-06-26T12:18:49.910Z,40.30
2019-06-26T12:19:52.183Z,41.20
2019-06-26T12:20:53.873Z,40.40
2019-06-26T12:21:55.570Z,41.30
2019-06-26T12:22:57.289Z,41.10
2019-06-26T12:23:58.874Z,40.10
2019-06-26T12:25:00.928Z,40.50
2019-06-26T12:26:02.762Z,39.70
2019-06-26T12:27:04.464Z,40.10
2019-06-26T12:28:06.175Z,40.10
2019-06-26T12:29:07.801Z,39.90
2019-06-26T12:30:10.417Z,38.90
2019-06-26T12:31:12.140Z,37.30
2019-06-26T12:32:13.888Z,37.70
2019-06-26T12:33:15.436Z,37.60
2019-06-26T12:34:17.236Z,36.40
2019-06-26T12:35:19.088Z,36.20
2019-06-26T12:36:20.682Z,35.30
2019-06-26T12:37:36.572Z,35.10
2019-06-26T12:38:26.180Z,35.40
2019-06-26T12:39:27.774Z,34.70
2019-06-26T12:40:31.239Z,34.80
2019-06-26T12:41:33.023Z,35.30
2019-06-26T12:42:34.720Z,34.80
2019-06-26T12:43:37.481Z,34.60
2019-06-26T12:44:39.147Z,33.40
2019-06-26T12:45:40.801Z,33.90
2019-06-26T12:46:42.479Z,30.20
2019-06-26T12:47:44.189Z,30.50
2019-06-26T12:48:45.867Z,31.80
2019-06-26T12:49:47.579Z,32.20
2019-06-26T12:50:49.214Z,32.50
2019-06-26T12:51:50.915Z,32.40
2019-06-26T12:52:52.609Z,33.60
2019-06-26T12:53:57.534Z,32.70
2019-06-26T12:54:57.967Z,33.60
2019-06-26T12:55:59.599Z,31.70
2019-06-26T12:57:01.291Z,32.70
2019-06-26T12:58:13.670Z,32.60
2019-06-26T12:59:07.090Z,33.20
2019-06-26T13:00:09.888Z,32.30
2019-06-26T13:01:11.507Z,32.00
2019-06-26T13:02:13.213Z,32.30
2019-06-26T13:03:14.832Z,31.70
2019-06-26T13:04:18.546Z,29.70
2019-06-26T13:05:20.134Z,29.40
2019-06-26T13:06:21.872Z,29.90
2019-06-26T13:07:23.482Z,29.80
2019-06-26T13:08:25.538Z,30.00
2019-06-26T13:09:27.137Z,30.00
2019-06-26T13:10:28.917Z,30.00
2019-06-26T13:11:30.569Z,30.70
2019-06-26T13:12:32.289Z,30.30
2019-06-26T13:13:34.039Z,30.40
2019-06-26T13:14:35.749Z,31.30
2019-06-26T13:15:37.371Z,31.20
2019-06-26T13:16:38.941Z,30.70
2019-06-26T13:17:40.836Z,31.00
2019-06-26T13:18:42.495Z,31.70